createdAt,value
2022-11-03T08:40:40.844Z,10.51
2022-11-03T08:41:42.182Z,10.56
2022-11-03T08:48:28.835Z,10.76
2022-11-03T08:49:30.231Z,11.26
2022-11-03T08:50:31.667Z,11.50
2022-11-03T08:51:33.351Z,11.88
2022-11-03T08:52:34.727Z,11.84
2022-11-03T08:53:36.309Z,11.43
2022-11-03T08:54:37.677Z,11.43
2022-11-03T08:55:39.198Z,11.57
2022-11-03T08:56:40.511Z,11.25
2022-11-03T08:57:41.882Z,11.20
2022-11-03T08:58:44.264Z,11.41
2022-11-03T08:59:46.557Z,11.17
2022-11-03T09:00:48.830Z,11.31
2022-11-03T09:01:50.737Z,11.70
2022-11-03T09:02:52.288Z,11.91
2022-11-03T09:03:53.876Z,11.80
2022-11-03T09:04:55.334Z,12.02
2022-11-03T09:11:05.377Z,12.46
2022-11-03T09:12:06.828Z,12.66
2022-11-03T09:13:08.477Z,12.31
2022-11-03T09:14:09.995Z,12.18
2022-11-03T09:15:11.757Z,12.32
2022-11-03T09:16:13.107Z,12.43
2022-11-03T09:17:14.463Z,12.56
2022-11-03T09:18:16.136Z,12.87
2022-11-03T09:19:17.496Z,13.18
2022-11-03T09:20:18.972Z,13.25
2022-11-03T09:21:20.531Z,13.19
2022-11-03T09:22:22.594Z,13.26
2022-11-03T09:23:23.948Z,13.34
2022-11-03T09:24:30.145Z,13.20
2022-11-03T09:25:31.557Z,13.50
2022-11-03T09:26:32.888Z,13.15
2022-11-03T09:27:34.258Z,12.95
2022-11-03T09:28:35.691Z,12.93
2022-11-03T09:47:47.153Z,10.93
2022-11-03T09:48:48.643Z,10.87
2022-11-03T09:49:50.462Z,10.92
2022-11-03T09:50:54.514Z,11.00
2022-11-03T09:51:58.882Z,10.97
2022-11-03T09:53:00.816Z,10.67
2022-11-03T09:54:04.849Z,10.86
2022-11-03T09:55:15.118Z,10.68
2022-11-03T09:56:19.437Z,10.66
2022-11-03T09:57:20.936Z,10.66
2022-11-03T09:58:22.399Z,10.72
2022-11-03T09:59:23.819Z,10.79
